Time;durP1;ratioP1;P1;durP2;ratioP2;P2;SDS_P1;SDS_P2;PMS_P1;PMS_P2;Temp;Humidity;BMP_temperature;BMP_pressure;BME280_temperature;BME280_humidity;BME280_pressure;Samples;Min_cycle;Max_cycle;Signal;HPM_P1;HPM_P2
2022/05/02 00:01:46;;;;;;;28.02;17.50;;;;;;;;;;5000080;28;20038;-78
2022/05/02 00:04:13;;;;;;;27.00;18.65;;;;;;;;;;4998761;28;20040;-78
2022/05/02 00:06:40;;;;;;;32.22;18.58;;;;;;;;;;5000751;28;20046;-79
2022/05/02 00:09:06;;;;;;;32.60;19.13;;;;;;;;;;5005438;28;21450;-79
2022/05/02 00:11:32;;;;;;;35.15;19.55;;;;;;;;;;5001712;28;20064;-78
2022/05/02 00:13:58;;;;;;;33.42;19.38;;;;;;;;;;4999932;28;20042;-78
2022/05/02 00:16:24;;;;;;;33.47;20.08;;;;;;;;;;4995196;28;20561;-78
2022/05/02 00:18:50;;;;;;;33.30;20.73;;;;;;;;;;4995649;28;20029;-78
2022/05/02 00:21:16;;;;;;;41.60;20.65;;;;;;;;;;4994146;28;20480;-77
2022/05/02 00:23:42;;;;;;;30.27;19.38;;;;;;;;;;4994558;28;20100;-78
2022/05/02 00:26:08;;;;;;;30.30;19.60;;;;;;;;;;5001243;28;20071;-78
2022/05/02 00:28:34;;;;;;;34.25;20.40;;;;;;;;;;4993980;28;20404;-77
2022/05/02 00:31:00;;;;;;;30.73;19.45;;;;;;;;;;4997407;28;20037;-77
2022/05/02 00:33:26;;;;;;;39.38;20.98;;;;;;;;;;4998125;28;20049;-77
2022/05/02 00:35:52;;;;;;;33.53;19.45;;;;;;;;;;4993495;28;20127;-78
2022/05/02 00:38:18;;;;;;;37.20;20.88;;;;;;;;;;4993832;28;20054;-78
2022/05/02 00:40:44;;;;;;;30.83;19.67;;;;;;;;;;4995919;28;20102;-78
2022/05/02 00:43:10;;;;;;;33.63;21.25;;;;;;;;;;5000394;28;20526;-79
2022/05/02 00:45:37;;;;;;;32.67;20.67;;;;;;;;;;4998326;28;20026;-78
2022/05/02 00:48:03;;;;;;;35.40;21.92;;;;;;;;;;4995009;28;20746;-78
2022/05/02 00:50:37;;;;;;;38.63;22.10;;;;;;;;;;4997539;28;20045;-78
2022/05/02 00:53:04;;;;;;;37.22;21.13;;;;;;;;;;4991364;28;20033;-78
2022/05/02 00:55:31;;;;;;;32.30;20.98;;;;;;;;;;4996834;28;20034;-78
2022/05/02 00:58:02;;;;;;;35.45;22.13;;;;;;;;;;4997508;28;20026;-78
2022/05/02 01:00:29;;;;;;;38.90;21.77;;;;;;;;;;4993835;28;20042;-77
2022/05/02 01:02:55;;;;;;;37.60;22.20;;;;;;;;;;5000224;28;20061;-81
2022/05/02 01:05:21;;;;;;;38.08;22.35;;;;;;;;;;4996149;28;20480;-78
2022/05/02 01:07:47;;;;;;;35.35;21.40;;;;;;;;;;4993610;28;20022;-79
2022/05/02 01:10:17;;;;;;;39.08;22.35;;;;;;;;;;4995405;28;20126;-77
2022/05/02 01:12:43;;;;;;;38.83;22.40;;;;;;;;;;5001583;28;20033;-78
2022/05/02 01:15:09;;;;;;;38.30;22.60;;;;;;;;;;4991019;28;20416;-77
2022/05/02 01:17:37;;;;;;;41.25;24.15;;;;;;;;;;4993996;28;21399;-77
2022/05/02 01:20:09;;;;;;;40.22;24.75;;;;;;;;;;4991551;28;20037;-77
2022/05/02 01:22:35;;;;;;;44.88;24.05;;;;;;;;;;4996948;28;20061;-76
2022/05/02 01:25:01;;;;;;;37.63;23.83;;;;;;;;;;4998108;28;20037;-77
2022/05/02 01:27:27;;;;;;;41.85;24.05;;;;;;;;;;4997027;28;20465;-77
2022/05/02 01:29:53;;;;;;;45.13;24.17;;;;;;;;;;4998449;28;20161;-77
2022/05/02 01:32:19;;;;;;;42.78;25.23;;;;;;;;;;5001423;28;20162;-78
2022/05/02 01:34:45;;;;;;;42.88;25.65;;;;;;;;;;4998583;28;20447;-78
2022/05/02 01:37:12;;;;;;;43.33;23.88;;;;;;;;;;4996395;28;20068;-78
2022/05/02 01:39:38;;;;;;;49.45;25.17;;;;;;;;;;4994348;28;20046;-78
2022/05/02 01:42:06;;;;;;;40.55;24.10;;;;;;;;;;5004203;28;20026;-77
2022/05/02 01:44:32;;;;;;;47.67;25.45;;;;;;;;;;4995451;28;20035;-78
2022/05/02 01:46:58;;;;;;;50.50;25.70;;;;;;;;;;5000834;28;20018;-78
2022/05/02 01:49:25;;;;;;;40.78;24.05;;;;;;;;;;4998087;28;20033;-79
2022/05/02 01:51:51;;;;;;;37.97;23.05;;;;;;;;;;4996518;28;20056;-78
2022/05/02 01:54:17;;;;;;;41.55;25.20;;;;;;;;;;4997892;28;20562;-77
2022/05/02 01:56:44;;;;;;;49.08;25.45;;;;;;;;;;4999202;28;20034;-76
2022/05/02 01:59:10;;;;;;;43.03;24.33;;;;;;;;;;4997145;28;20516;-78
2022/05/02 02:01:36;;;;;;;50.35;26.23;;;;;;;;;;4990186;28;20041;-78
2022/05/02 02:06:50;;;;;;;52.83;27.95;;;;;;;;;;4993700;28;20081;-78
2022/05/02 02:09:16;;;;;;;49.22;27.08;;;;;;;;;;4992384;28;20043;-76
2022/05/02 02:11:42;;;;;;;43.95;25.65;;;;;;;;;;4991413;28;20022;-79
2022/05/02 02:14:08;;;;;;;45.55;23.10;;;;;;;;;;4994377;28;20058;-77
2022/05/02 02:16:34;;;;;;;56.75;28.45;;;;;;;;;;4997758;28;20038;-79
2022/05/02 02:19:00;;;;;;;61.83;30.15;;;;;;;;;;4995992;28;20449;-79
2022/05/02 02:21:26;;;;;;;61.90;30.67;;;;;;;;;;5000110;28;20108;-79
2022/05/02 02:23:53;;;;;;;62.25;30.20;;;;;;;;;;4997724;28;20122;-78
2022/05/02 02:26:19;;;;;;;55.78;29.10;;;;;;;;;;4994551;28;20403;-78
2022/05/02 02:28:45;;;;;;;60.95;29.85;;;;;;;;;;4996182;28;20040;-78
2022/05/02 02:31:11;;;;;;;65.35;30.45;;;;;;;;;;5000847;28;20030;-78
2022/05/02 02:33:37;;;;;;;57.38;28.75;;;;;;;;;;5001514;28;20511;-78
2022/05/02 02:36:04;;;;;;;61.05;30.70;;;;;;;;;;4995939;28;20030;-79
2022/05/02 02:38:30;;;;;;;63.30;31.52;;;;;;;;;;4996197;28;20042;-77
2022/05/02 02:40:56;;;;;;;56.15;29.20;;;;;;;;;;4995492;28;20042;-78
2022/05/02 02:43:22;;;;;;;61.75;30.92;;;;;;;;;;4997241;28;20030;-76
2022/05/02 02:45:48;;;;;;;47.95;25.30;;;;;;;;;;4997824;28;20041;-79
2022/05/02 02:48:14;;;;;;;39.95;21.83;;;;;;;;;;4996901;28;20030;-79
2022/05/02 02:50:40;;;;;;;45.78;24.23;;;;;;;;;;5001647;28;20114;-78
2022/05/02 02:53:06;;;;;;;44.70;23.38;;;;;;;;;;4993865;28;20109;-78
2022/05/02 02:55:32;;;;;;;46.42;21.95;;;;;;;;;;4997244;28;20105;-78
2022/05/02 02:57:58;;;;;;;46.13;23.13;;;;;;;;;;4998483;28;20437;-78
2022/05/02 03:00:24;;;;;;;54.85;27.67;;;;;;;;;;5004440;28;20124;-78
2022/05/02 03:02:50;;;;;;;66.38;32.63;;;;;;;;;;4996973;28;20042;-78
2022/05/02 03:08:01;;;;;;;71.30;31.92;;;;;;;;;;5000324;28;20109;-78
2022/05/02 03:10:27;;;;;;;69.53;32.75;;;;;;;;;;4999832;28;20038;-79
2022/05/02 03:13:12;;;;;;;69.35;32.33;;;;;;;;;;4996775;28;20030;-82
2022/05/02 03:15:38;;;;;;;67.43;31.20;;;;;;;;;;4998345;28;20092;-78
2022/05/02 03:18:04;;;;;;;70.60;31.20;;;;;;;;;;4998116;28;20026;-78
2022/05/02 03:20:30;;;;;;;65.45;31.15;;;;;;;;;;4997693;28;20026;-79
2022/05/02 03:22:56;;;;;;;72.90;31.55;;;;;;;;;;4998813;28;20040;-79
2022/05/02 03:25:22;;;;;;;75.20;34.08;;;;;;;;;;4998457;28;20139;-78
2022/05/02 03:27:48;;;;;;;64.65;31.02;;;;;;;;;;4995039;28;20027;-78
2022/05/02 03:30:14;;;;;;;48.40;24.92;;;;;;;;;;4996038;28;20439;-78
2022/05/02 03:32:40;;;;;;;43.08;22.25;;;;;;;;;;4999702;28;20113;-78
2022/05/02 03:35:07;;;;;;;38.65;20.27;;;;;;;;;;4990940;28;20036;-77
2022/05/02 03:37:33;;;;;;;36.72;19.25;;;;;;;;;;4995630;28;20034;-78
2022/05/02 03:39:59;;;;;;;37.45;19.15;;;;;;;;;;4996637;28;20031;-77
2022/05/02 03:42:25;;;;;;;39.33;20.80;;;;;;;;;;5002189;28;20352;-77
2022/05/02 03:45:10;;;;;;;39.28;20.08;;;;;;;;;;4998843;28;20036;-78
2022/05/02 03:47:36;;;;;;;48.78;21.67;;;;;;;;;;4998320;28;20116;-78
2022/05/02 03:50:02;;;;;;;46.45;22.50;;;;;;;;;;4999563;28;20038;-78
2022/05/02 03:52:28;;;;;;;58.28;23.60;;;;;;;;;;4998368;28;20080;-78
2022/05/02 03:54:54;;;;;;;41.10;20.58;;;;;;;;;;4997696;28;20096;-78
2022/05/02 03:57:20;;;;;;;40.80;20.48;;;;;;;;;;5001060;28;20030;-78
2022/05/02 03:59:47;;;;;;;39.38;21.13;;;;;;;;;;5000030;28;20034;-78
2022/05/02 04:02:13;;;;;;;43.60;20.70;;;;;;;;;;4996901;28;20559;-78
2022/05/02 04:04:39;;;;;;;36.97;19.88;;;;;;;;;;4994464;28;20030;-78
2022/05/02 04:07:05;;;;;;;46.33;20.90;;;;;;;;;;4997656;28;20093;-77
2022/05/02 04:09:31;;;;;;;66.43;24.38;;;;;;;;;;4993972;28;20030;-77
2022/05/02 04:11:57;;;;;;;43.90;20.92;;;;;;;;;;4999603;28;20041;-77
2022/05/02 04:14:23;;;;;;;46.30;21.70;;;;;;;;;;4997415;28;20057;-77
2022/05/02 04:16:50;;;;;;;44.08;20.23;;;;;;;;;;5003926;28;20108;-77
2022/05/02 04:19:16;;;;;;;51.42;22.40;;;;;;;;;;4999694;28;20086;-78
2022/05/02 04:21:43;;;;;;;61.50;23.45;;;;;;;;;;4995737;28;20034;-78
2022/05/02 04:24:09;;;;;;;49.53;22.55;;;;;;;;;;4998798;28;20042;-78
2022/05/02 04:26:35;;;;;;;50.45;21.52;;;;;;;;;;4994283;28;20108;-77
2022/05/02 04:29:01;;;;;;;67.10;23.77;;;;;;;;;;4996615;28;20042;-79
2022/05/02 04:31:27;;;;;;;57.42;23.92;;;;;;;;;;4998166;28;20022;-77
2022/05/02 04:33:53;;;;;;;51.05;23.27;;;;;;;;;;4999528;28;20131;-78
2022/05/02 04:36:19;;;;;;;64.82;23.70;;;;;;;;;;4999174;28;20156;-77
2022/05/02 04:38:46;;;;;;;49.67;21.88;;;;;;;;;;4994245;28;20534;-78
2022/05/02 04:41:14;;;;;;;33.03;18.38;;;;;;;;;;4995396;28;20041;-79
2022/05/02 04:43:41;;;;;;;32.63;18.20;;;;;;;;;;4997227;28;20109;-79
2022/05/02 04:46:07;;;;;;;22.33;14.30;;;;;;;;;;4999081;28;20034;-79
2022/05/02 04:48:33;;;;;;;24.27;13.00;;;;;;;;;;4998525;28;20117;-80
2022/05/02 04:51:00;;;;;;;14.43;12.32;;;;;;;;;;5000745;28;20041;-78
2022/05/02 04:53:26;;;;;;;20.88;12.30;;;;;;;;;;4996830;28;20030;-77
2022/05/02 04:55:52;;;;;;;23.02;12.85;;;;;;;;;;4994632;28;20034;-80
2022/05/02 04:58:19;;;;;;;29.23;10.15;;;;;;;;;;4995568;28;20038;-77
2022/05/02 05:00:45;;;;;;;37.15;9.98;;;;;;;;;;4995004;28;20034;-77
2022/05/02 05:03:11;;;;;;;31.48;7.80;;;;;;;;;;4994073;28;20037;-78
2022/05/02 05:05:37;;;;;;;17.27;7.75;;;;;;;;;;4990982;28;20041;-80
2022/05/02 05:08:03;;;;;;;22.98;7.68;;;;;;;;;;4995725;28;20025;-77
2022/05/02 05:10:29;;;;;;;34.08;8.05;;;;;;;;;;4992496;28;20034;-78
2022/05/02 05:12:55;;;;;;;17.65;7.57;;;;;;;;;;4995714;28;20030;-81
2022/05/02 05:18:23;;;;;;;18.95;7.10;;;;;;;;;;4995890;28;20560;-78
2022/05/02 05:20:49;;;;;;;9.43;5.55;;;;;;;;;;4996180;28;20517;-78
2022/05/02 05:23:31;;;;;;;7.53;6.20;;;;;;;;;;4992637;28;20038;-78
2022/05/02 05:26:07;;;;;;;9.90;7.90;;;;;;;;;;4997424;28;20109;-78
2022/05/02 05:28:33;;;;;;;10.07;7.32;;;;;;;;;;4998513;28;20066;-77
2022/05/02 05:31:07;;;;;;;14.82;8.93;;;;;;;;;;4997474;28;20898;-79
2022/05/02 05:33:44;;;;;;;13.48;9.48;;;;;;;;;;4994441;28;20522;-77
2022/05/02 05:36:20;;;;;;;13.52;9.93;;;;;;;;;;4997714;28;20507;-77
2022/05/02 05:39:18;;;;;;;13.23;9.43;;;;;;;;;;4996040;28;20031;-77
2022/05/02 05:41:59;;;;;;;15.10;9.10;;;;;;;;;;4949693;28;20056;-78
2022/05/02 05:44:43;;;;;;;15.52;10.07;;;;;;;;;;4999014;28;20081;-85
2022/05/02 05:47:24;;;;;;;21.05;12.90;;;;;;;;;;4998692;28;20030;-76
2022/05/02 05:50:02;;;;;;;17.50;12.05;;;;;;;;;;4998829;28;20026;-76
2022/05/02 05:52:36;;;;;;;17.15;12.60;;;;;;;;;;5001839;28;20120;-77
2022/05/02 05:55:02;;;;;;;17.02;12.52;;;;;;;;;;5006627;28;20307;-77
2022/05/02 05:57:31;;;;;;;16.42;13.20;;;;;;;;;;5009076;28;20668;-77
2022/05/02 06:00:14;;;;;;;21.40;13.63;;;;;;;;;;5000386;28;20058;-77
2022/05/02 06:02:49;;;;;;;18.98;13.07;;;;;;;;;;5002588;28;20095;-77
2022/05/02 06:05:16;;;;;;;29.75;13.18;;;;;;;;;;5011892;28;20450;-75
2022/05/02 06:07:43;;;;;;;15.73;12.60;;;;;;;;;;5007437;28;20483;-77
2022/05/02 06:10:09;;;;;;;15.45;12.30;;;;;;;;;;5009271;28;20479;-77
2022/05/02 06:12:36;;;;;;;17.17;12.88;;;;;;;;;;5001707;28;20124;-78
2022/05/02 06:20:36;;;;;;;22.63;12.85;;;;;;;;;;5000035;28;20056;-78
2022/05/02 06:23:03;;;;;;;16.35;11.88;;;;;;;;;;5002356;28;20139;-77
2022/05/02 06:25:30;;;;;;;18.90;13.48;;;;;;;;;;5001709;28;20032;-78
2022/05/02 06:27:56;;;;;;;18.80;13.57;;;;;;;;;;5001682;28;20022;-78
2022/05/02 06:30:23;;;;;;;19.67;12.48;;;;;;;;;;5000563;28;20507;-78
2022/05/02 06:32:51;;;;;;;16.95;12.18;;;;;;;;;;5010881;28;20317;-78
2022/05/02 06:35:17;;;;;;;20.65;12.57;;;;;;;;;;4997224;28;20061;-78
2022/05/02 06:38:01;;;;;;;19.95;13.10;;;;;;;;;;5003929;28;20510;-77
2022/05/02 06:40:56;;;;;;;21.75;12.85;;;;;;;;;;5004862;28;20034;-78
2022/05/02 06:43:30;;;;;;;17.00;12.27;;;;;;;;;;5000115;28;20054;-79
2022/05/02 06:46:00;;;;;;;18.05;13.27;;;;;;;;;;5003545;28;20022;-82
2022/05/02 06:48:29;;;;;;;16.73;11.90;;;;;;;;;;5006543;28;20179;-80
2022/05/02 06:51:00;;;;;;;18.60;12.30;;;;;;;;;;5009083;28;20038;-85
2022/05/02 06:53:26;;;;;;;14.52;11.68;;;;;;;;;;5016677;28;20397;-82
2022/05/02 06:56:04;;;;;;;26.98;13.07;;;;;;;;;;5013971;28;20006;-80
2022/05/02 06:58:44;;;;;;;18.00;13.80;;;;;;;;;;5024739;28;20089;-83
2022/05/02 07:01:15;;;;;;;21.05;14.20;;;;;;;;;;5016731;28;20025;-81
2022/05/02 07:03:50;;;;;;;30.75;14.05;;;;;;;;;;5015923;28;20042;-82
2022/05/02 07:06:25;;;;;;;21.38;14.32;;;;;;;;;;5016812;28;20065;-78
2022/05/02 07:08:56;;;;;;;19.02;13.45;;;;;;;;;;5013915;28;20038;-79
2022/05/02 07:11:22;;;;;;;23.95;14.30;;;;;;;;;;5008699;28;20038;-79
2022/05/02 07:13:54;;;;;;;18.73;13.68;;;;;;;;;;5018828;28;20164;-80
2022/05/02 07:16:24;;;;;;;17.88;13.80;;;;;;;;;;5016887;28;20038;-78
2022/05/02 07:19:01;;;;;;;61.70;16.48;;;;;;;;;;5012671;28;20056;-79
2022/05/02 07:21:42;;;;;;;17.88;13.45;;;;;;;;;;5020064;28;20022;-79
2022/05/02 07:24:14;;;;;;;19.60;13.48;;;;;;;;;;5016452;28;20108;-80
2022/05/02 07:26:42;;;;;;;18.85;13.23;;;;;;;;;;5016420;28;20033;-81
2022/05/02 07:29:08;;;;;;;20.15;13.80;;;;;;;;;;5012496;28;20063;-78
2022/05/02 07:31:35;;;;;;;22.65;14.68;;;;;;;;;;5009550;28;20612;-76
2022/05/02 07:34:02;;;;;;;24.00;14.73;;;;;;;;;;5023558;28;20099;-79
2022/05/02 07:36:31;;;;;;;34.90;14.60;;;;;;;;;;5023097;28;20037;-78
2022/05/02 07:38:59;;;;;;;20.35;13.20;;;;;;;;;;5009918;28;20060;-80
2022/05/02 07:41:25;;;;;;;21.25;13.25;;;;;;;;;;5007843;28;21861;-78
2022/05/02 07:43:52;;;;;;;33.83;14.57;;;;;;;;;;4993506;28;20128;-84
2022/05/02 07:46:24;;;;;;;23.08;14.30;;;;;;;;;;5002060;28;20026;-81
2022/05/02 07:48:52;;;;;;;21.67;13.98;;;;;;;;;;5013839;28;20550;-78
2022/05/02 07:51:19;;;;;;;19.40;14.25;;;;;;;;;;5016915;28;20518;-78
2022/05/02 07:53:46;;;;;;;20.08;14.18;;;;;;;;;;5007602;28;20030;-76
2022/05/02 07:56:13;;;;;;;20.70;12.95;;;;;;;;;;4996347;28;20535;-77
2022/05/02 07:58:43;;;;;;;18.08;13.27;;;;;;;;;;4991441;28;20022;-79
2022/05/02 08:01:09;;;;;;;20.58;13.27;;;;;;;;;;5003031;28;20022;-77
2022/05/02 08:03:36;;;;;;;27.63;14.30;;;;;;;;;;5004074;28;20416;-77
2022/05/02 08:06:16;;;;;;;18.25;12.98;;;;;;;;;;5004971;28;20057;-76
2022/05/02 08:08:54;;;;;;;21.23;12.52;;;;;;;;;;5016316;28;20041;-78
2022/05/02 08:11:26;;;;;;;21.45;12.65;;;;;;;;;;5011384;28;20318;-77
2022/05/02 08:13:52;;;;;;;18.42;12.75;;;;;;;;;;5009181;28;20045;-78
2022/05/02 08:16:25;;;;;;;17.80;12.93;;;;;;;;;;5012132;28;20045;-79
2022/05/02 08:18:54;;;;;;;17.27;12.65;;;;;;;;;;5006042;28;20034;-77
2022/05/02 08:21:28;;;;;;;19.90;13.00;;;;;;;;;;5003038;28;20038;-76
2022/05/02 08:27:24;;;;;;;18.33;13.10;;;;;;;;;;5012032;28;20028;-77
2022/05/02 08:30:17;;;;;;;17.55;12.95;;;;;;;;;;5002785;28;20137;-77
2022/05/02 08:33:02;;;;;;;18.08;12.13;;;;;;;;;;4996873;28;20496;-74
2022/05/02 08:35:46;;;;;;;16.27;12.27;;;;;;;;;;4996867;28;20085;-76
2022/05/02 08:38:12;;;;;;;15.10;11.50;;;;;;;;;;4992125;28;20071;-77
2022/05/02 08:40:56;;;;;;;16.90;10.25;;;;;;;;;;5004012;28;20030;-78
2022/05/02 08:43:41;;;;;;;12.75;9.55;;;;;;;;;;4999427;28;20180;-78
2022/05/02 08:46:26;;;;;;;14.40;9.23;;;;;;;;;;5010831;28;20574;-77
2022/05/02 08:52:01;;;;;;;18.33;8.75;;;;;;;;;;4993000;28;20044;-77
2022/05/02 08:54:36;;;;;;;16.63;10.98;;;;;;;;;;4994991;28;20174;-76
2022/05/02 08:57:21;;;;;;;17.80;11.05;;;;;;;;;;4990080;28;20510;-77
2022/05/02 08:59:56;;;;;;;16.40;11.07;;;;;;;;;;4991138;28;20105;-79
2022/05/02 09:02:48;;;;;;;16.15;11.13;;;;;;;;;;4998880;28;20045;-79
2022/05/02 09:05:30;;;;;;;12.70;10.02;;;;;;;;;;4992877;28;20042;-80
2022/05/02 09:08:02;;;;;;;16.25;11.18;;;;;;;;;;5009626;28;20025;-79
2022/05/02 09:10:44;;;;;;;14.45;9.73;;;;;;;;;;5005932;28;20041;-78
2022/05/02 09:13:35;;;;;;;20.60;10.10;;;;;;;;;;4991088;28;20054;-79
2022/05/02 09:16:01;;;;;;;11.68;7.70;;;;;;;;;;4989679;28;20042;-81
2022/05/02 09:18:42;;;;;;;13.65;7.70;;;;;;;;;;4989822;28;20033;-77
2022/05/02 09:21:08;;;;;;;13.63;9.48;;;;;;;;;;5008525;28;20037;-78
2022/05/02 09:23:56;;;;;;;12.02;9.10;;;;;;;;;;5005734;28;20037;-78
2022/05/02 09:26:33;;;;;;;11.65;9.52;;;;;;;;;;4982950;28;20121;-79
2022/05/02 09:29:18;;;;;;;16.25;9.25;;;;;;;;;;4998636;28;20033;-79
2022/05/02 09:31:57;;;;;;;15.80;9.68;;;;;;;;;;5004211;28;20517;-76
2022/05/02 09:34:36;;;;;;;17.53;9.43;;;;;;;;;;4995780;28;20476;-78
2022/05/02 09:37:02;;;;;;;12.13;8.98;;;;;;;;;;4989606;28;20060;-77
2022/05/02 09:39:43;;;;;;;16.50;9.25;;;;;;;;;;4995872;28;20444;-78
2022/05/02 09:42:16;;;;;;;10.65;8.40;;;;;;;;;;5011186;28;20055;-78
2022/05/02 09:50:29;;;;;;;14.18;8.80;;;;;;;;;;5001989;28;20033;-78
2022/05/02 09:53:14;;;;;;;15.07;9.20;;;;;;;;;;5010967;28;20068;-76
2022/05/02 09:58:57;;;;;;;13.45;9.25;;;;;;;;;;5009778;28;20487;-80
2022/05/02 10:01:26;;;;;;;13.98;7.25;;;;;;;;;;4993346;28;20063;-79
2022/05/02 10:04:01;;;;;;;14.50;6.75;;;;;;;;;;5015766;28;20041;-77
2022/05/02 10:06:31;;;;;;;8.52;5.15;;;;;;;;;;5005201;28;20113;-77
2022/05/02 10:09:10;;;;;;;12.35;6.35;;;;;;;;;;5004150;28;20049;-78
2022/05/02 10:11:39;;;;;;;12.00;8.95;;;;;;;;;;5013409;28;20033;-79
2022/05/02 10:14:14;;;;;;;16.77;8.48;;;;;;;;;;5013684;28;20395;-78
2022/05/02 10:16:43;;;;;;;9.50;7.57;;;;;;;;;;5012976;28;20622;-78
2022/05/02 10:19:16;;;;;;;12.10;7.00;;;;;;;;;;5008250;28;20471;-77
2022/05/02 10:22:00;;;;;;;9.38;6.97;;;;;;;;;;5001360;28;20073;-77
2022/05/02 10:24:32;;;;;;;11.70;7.70;;;;;;;;;;5008511;28;20034;-76
2022/05/02 10:27:13;;;;;;;12.65;7.63;;;;;;;;;;5011666;28;20468;-76
2022/05/02 10:29:43;;;;;;;13.20;9.10;;;;;;;;;;4993449;28;20503;-78
2022/05/02 10:32:29;;;;;;;11.15;9.27;;;;;;;;;;4992943;28;20069;-76
2022/05/02 10:34:55;;;;;;;14.35;8.80;;;;;;;;;;4992798;28;20504;-76
2022/05/02 10:37:28;;;;;;;11.23;8.60;;;;;;;;;;4995521;28;20037;-75
2022/05/02 10:39:58;;;;;;;14.90;9.80;;;;;;;;;;4999481;28;20168;-77
2022/05/02 10:42:25;;;;;;;12.40;9.02;;;;;;;;;;5001356;28;20508;-76
2022/05/02 10:45:03;;;;;;;12.25;9.25;;;;;;;;;;5011220;28;20471;-76
2022/05/02 10:47:35;;;;;;;12.73;6.47;;;;;;;;;;4992503;28;20072;-77
2022/05/02 10:50:08;;;;;;;10.68;8.25;;;;;;;;;;4997818;28;20145;-76
2022/05/02 10:52:46;;;;;;;12.15;7.97;;;;;;;;;;5011655;28;20026;-78
2022/05/02 10:55:14;;;;;;;12.35;8.13;;;;;;;;;;5007075;28;20030;-75
2022/05/02 10:57:46;;;;;;;12.80;7.80;;;;;;;;;;5012060;28;20029;-76
2022/05/02 11:00:12;;;;;;;18.45;8.68;;;;;;;;;;5003903;28;20054;-76
2022/05/02 11:02:53;;;;;;;11.63;7.88;;;;;;;;;;5006988;28;20045;-76
2022/05/02 11:05:25;;;;;;;14.82;8.68;;;;;;;;;;5001512;28;20069;-76
2022/05/02 11:07:52;;;;;;;10.57;8.73;;;;;;;;;;5004324;28;20041;-79
2022/05/02 11:10:19;;;;;;;15.35;9.73;;;;;;;;;;4997238;28;20034;-75
2022/05/02 11:12:45;;;;;;;34.72;9.50;;;;;;;;;;5001495;28;20026;-77
2022/05/02 11:15:12;;;;;;;11.30;7.97;;;;;;;;;;4997305;28;20136;-77
2022/05/02 11:18:07;;;;;;;11.25;8.68;;;;;;;;;;4995996;28;20107;-76
2022/05/02 11:20:43;;;;;;;12.40;8.48;;;;;;;;;;4984264;28;20117;-77
2022/05/02 11:23:10;;;;;;;11.20;7.93;;;;;;;;;;5004181;28;20040;-80
2022/05/02 11:25:37;;;;;;;12.02;8.50;;;;;;;;;;5000390;28;20101;-77
2022/05/02 11:28:15;;;;;;;11.20;8.27;;;;;;;;;;4998722;28;20080;-77
2022/05/02 11:30:43;;;;;;;10.55;7.53;;;;;;;;;;4999918;28;20564;-77
2022/05/02 11:33:18;;;;;;;9.65;7.60;;;;;;;;;;5015464;28;20030;-78
2022/05/02 11:35:47;;;;;;;12.68;7.03;;;;;;;;;;5002892;28;20030;-77
2022/05/02 11:38:26;;;;;;;15.73;8.17;;;;;;;;;;5000706;28;20101;-78
2022/05/02 11:40:59;;;;;;;9.95;8.02;;;;;;;;;;5001198;28;20033;-78
2022/05/02 11:43:26;;;;;;;11.25;7.88;;;;;;;;;;5001933;28;20568;-80
2022/05/02 11:45:55;;;;;;;10.93;7.68;;;;;;;;;;4997325;28;20026;-79
2022/05/02 11:48:21;;;;;;;8.82;7.00;;;;;;;;;;5001619;28;20026;-78
2022/05/02 11:50:48;;;;;;;11.70;7.90;;;;;;;;;;5001372;28;20033;-79
2022/05/02 11:53:16;;;;;;;10.25;7.60;;;;;;;;;;5000403;28;20022;-77
2022/05/02 11:55:43;;;;;;;10.73;7.60;;;;;;;;;;4998618;28;20038;-77
2022/05/02 11:58:14;;;;;;;14.20;8.50;;;;;;;;;;4999533;28;20065;-78
2022/05/02 12:00:40;;;;;;;;;;;;;;;;;;4997116;28;20030;-77
2022/05/02 12:03:12;;;;;;;9.63;7.63;;;;;;;;;;4992709;28;20454;-76
2022/05/02 12:05:42;;;;;;;9.50;7.53;;;;;;;;;;5001776;28;20161;-75
2022/05/02 12:08:09;;;;;;;13.27;7.45;;;;;;;;;;5000673;28;20030;-76
2022/05/02 12:10:39;;;;;;;10.18;7.68;;;;;;;;;;4991061;28;20037;-77
2022/05/02 12:13:05;;;;;;;12.20;7.70;;;;;;;;;;4994764;28;20026;-76
2022/05/02 12:15:32;;;;;;;10.40;7.93;;;;;;;;;;4988888;28;20420;-77
2022/05/02 12:18:03;;;;;;;11.00;7.95;;;;;;;;;;4982001;28;20070;-78
2022/05/02 12:20:29;;;;;;;10.80;6.85;;;;;;;;;;4975496;28;20038;-77
2022/05/02 12:22:59;;;;;;;11.00;7.60;;;;;;;;;;4978115;28;20146;-78
2022/05/02 12:25:26;;;;;;;10.95;7.70;;;;;;;;;;4976150;28;20050;-74
2022/05/02 12:27:53;;;;;;;14.77;7.95;;;;;;;;;;4979772;28;20030;-74
2022/05/02 12:30:20;;;;;;;8.45;6.93;;;;;;;;;;4981431;28;20062;-74
2022/05/02 12:32:47;;;;;;;7.07;5.57;;;;;;;;;;4979001;28;20057;-74
2022/05/02 12:35:14;;;;;;;11.90;6.50;;;;;;;;;;4988026;28;20048;-75
2022/05/02 12:37:42;;;;;;;8.63;5.63;;;;;;;;;;4960302;28;20535;-75
2022/05/02 12:40:18;;;;;;;8.52;5.60;;;;;;;;;;4971518;28;20031;-74
2022/05/02 12:42:56;;;;;;;9.70;6.32;;;;;;;;;;4971299;28;20033;-74
2022/05/02 12:45:23;;;;;;;9.23;6.32;;;;;;;;;;4974427;28;20033;-75
2022/05/02 12:47:56;;;;;;;10.75;6.57;;;;;;;;;;4990181;28;20053;-74
2022/05/02 12:50:27;;;;;;;8.45;5.88;;;;;;;;;;4986744;28;20161;-73
2022/05/02 12:52:55;;;;;;;7.32;5.75;;;;;;;;;;4986164;28;20027;-75
2022/05/02 12:55:22;;;;;;;8.27;5.68;;;;;;;;;;4988937;28;20504;-74
2022/05/02 13:00:34;;;;;;;6.65;5.32;;;;;;;;;;4972495;28;20054;-74
2022/05/02 13:03:03;;;;;;;10.35;4.63;;;;;;;;;;4972229;28;20070;-74
2022/05/02 13:05:31;;;;;;;10.55;5.30;;;;;;;;;;4990826;28;20376;-75
2022/05/02 13:07:57;;;;;;;6.93;4.97;;;;;;;;;;4990957;28;20084;-75
2022/05/02 13:10:27;;;;;;;12.10;5.75;;;;;;;;;;4990671;28;20026;-74
2022/05/02 13:12:56;;;;;;;7.63;5.13;;;;;;;;;;4989196;28;20117;-73
2022/05/02 13:15:24;;;;;;;7.25;4.35;;;;;;;;;;4978127;28;20400;-73
2022/05/02 13:17:51;;;;;;;7.78;3.53;;;;;;;;;;4997729;28;20033;-76
2022/05/02 13:20:17;;;;;;;5.63;4.13;;;;;;;;;;5007980;28;20411;-75
2022/05/02 13:23:02;;;;;;;6.30;4.00;;;;;;;;;;4995788;28;20029;-74
2022/05/02 13:25:47;;;;;;;5.72;3.40;;;;;;;;;;5008250;28;20127;-74
2022/05/02 13:28:19;;;;;;;8.35;4.40;;;;;;;;;;5007857;28;20100;-74
2022/05/02 13:30:51;;;;;;;8.90;3.88;;;;;;;;;;5010114;28;20026;-75
2022/05/02 13:33:19;;;;;;;3.97;3.22;;;;;;;;;;5007915;28;20060;-74
2022/05/02 13:35:46;;;;;;;7.03;4.78;;;;;;;;;;5010193;28;20034;-75
2022/05/02 13:38:14;;;;;;;8.65;6.05;;;;;;;;;;5009475;28;20285;-75
2022/05/02 13:40:40;;;;;;;8.48;5.50;;;;;;;;;;5009603;28;20037;-75
2022/05/02 13:43:18;;;;;;;6.57;4.65;;;;;;;;;;5007657;28;20688;-75
2022/05/02 13:45:50;;;;;;;9.70;4.78;;;;;;;;;;5006347;28;20075;-75
2022/05/02 13:48:19;;;;;;;9.00;4.50;;;;;;;;;;5010568;28;20159;-75
2022/05/02 13:50:46;;;;;;;9.70;4.40;;;;;;;;;;4995617;28;20022;-75
2022/05/02 13:53:36;;;;;;;6.90;4.78;;;;;;;;;;4989556;28;20030;-75
2022/05/02 13:56:14;;;;;;;10.30;4.40;;;;;;;;;;4979659;28;20030;-75
2022/05/02 13:58:40;;;;;;;7.03;4.78;;;;;;;;;;4990482;28;20030;-75
2022/05/02 14:01:28;;;;;;;6.55;3.85;;;;;;;;;;4995444;28;20094;-75
2022/05/02 14:04:01;;;;;;;5.50;3.67;;;;;;;;;;4989016;28;20138;-75
2022/05/02 14:06:35;;;;;;;10.20;4.72;;;;;;;;;;4989814;28;20033;-76
2022/05/02 14:09:02;;;;;;;7.30;4.85;;;;;;;;;;4989910;28;20061;-76
2022/05/02 14:11:28;;;;;;;8.05;5.38;;;;;;;;;;4990209;28;20081;-74
2022/05/02 14:14:06;;;;;;;12.40;7.00;;;;;;;;;;4992351;28;20109;-74
2022/05/02 14:16:38;;;;;;;10.50;6.75;;;;;;;;;;5010079;28;20050;-74
2022/05/02 14:19:07;;;;;;;10.80;6.82;;;;;;;;;;5009980;28;20030;-74
2022/05/02 14:21:38;;;;;;;9.65;6.70;;;;;;;;;;5009949;28;20491;-74
2022/05/02 14:24:04;;;;;;;9.48;6.88;;;;;;;;;;5009709;28;20061;-74
2022/05/02 14:26:31;;;;;;;9.95;5.28;;;;;;;;;;5008675;28;20448;-74
2022/05/02 14:28:58;;;;;;;7.13;4.30;;;;;;;;;;5003146;28;20032;-76
2022/05/02 14:31:36;;;;;;;10.15;2.95;;;;;;;;;;4994391;28;20035;-74
2022/05/02 14:34:09;;;;;;;7.60;2.47;;;;;;;;;;5008956;28;20064;-75
2022/05/02 14:36:40;;;;;;;6.93;2.95;;;;;;;;;;4995987;28;20061;-74
2022/05/02 14:39:06;;;;;;;8.55;2.55;;;;;;;;;;4998288;28;20062;-75
2022/05/02 14:41:39;;;;;;;4.57;2.53;;;;;;;;;;5003618;28;20038;-75
2022/05/02 14:44:07;;;;;;;4.00;2.33;;;;;;;;;;5010763;28;20038;-75
2022/05/02 14:46:34;;;;;;;4.90;2.70;;;;;;;;;;5012876;28;20041;-75
2022/05/02 14:49:01;;;;;;;7.57;3.50;;;;;;;;;;4998554;28;20037;-75
2022/05/02 14:51:30;;;;;;;9.90;3.20;;;;;;;;;;4994214;28;20026;-75
2022/05/02 14:53:57;;;;;;;5.53;3.33;;;;;;;;;;4993819;28;20068;-75
2022/05/02 14:56:27;;;;;;;6.53;3.97;;;;;;;;;;4993687;28;20049;-74
2022/05/02 14:58:54;;;;;;;4.88;3.05;;;;;;;;;;4993593;28;20480;-76
2022/05/02 15:01:21;;;;;;;6.93;3.13;;;;;;;;;;4993659;28;20084;-74
2022/05/02 15:03:48;;;;;;;5.88;3.30;;;;;;;;;;4994055;28;20447;-74
2022/05/02 15:06:18;;;;;;;3.28;2.60;;;;;;;;;;4993988;28;20169;-77
2022/05/02 15:09:03;;;;;;;5.38;2.92;;;;;;;;;;4993696;28;20034;-74
2022/05/02 15:11:29;;;;;;;9.15;3.30;;;;;;;;;;4992849;28;20030;-74
2022/05/02 15:13:55;;;;;;;6.40;2.75;;;;;;;;;;4992453;28;20034;-74
2022/05/02 15:16:24;;;;;;;38.45;5.95;;;;;;;;;;4992545;28;20506;-75